createdAt,value
2018-03-08T00:02:14.496Z,19.96
2018-03-08T00:04:40.465Z,19.98
2018-03-08T00:07:06.443Z,19.97
2018-03-08T00:09:32.408Z,20.01
2018-03-08T00:11:58.570Z,19.97
2018-03-08T00:14:24.586Z,19.96
2018-03-08T00:16:50.556Z,20.00
2018-03-08T00:19:16.528Z,19.95
2018-03-08T00:21:42.491Z,19.98
2018-03-08T00:24:08.443Z,19.99
2018-03-08T00:26:34.405Z,19.95
2018-03-08T00:29:00.432Z,19.94
2018-03-08T00:31:26.421Z,19.97
2018-03-08T00:33:52.364Z,19.94
2018-03-08T00:36:18.334Z,19.95
2018-03-08T00:38:44.294Z,19.93
2018-03-08T00:41:10.255Z,19.95
2018-03-08T00:43:36.347Z,19.94
2018-03-08T00:46:02.532Z,19.94
2018-03-08T00:48:28.505Z,19.96
2018-03-08T00:50:54.470Z,19.95
2018-03-08T00:53:20.431Z,19.95
2018-03-08T00:55:46.387Z,19.89
2018-03-08T00:58:12.347Z,19.93
2018-03-08T01:00:38.380Z,19.86
2018-03-08T01:03:04.336Z,19.91
2018-03-08T01:05:30.293Z,19.90
2018-03-08T01:07:56.274Z,19.89
2018-03-08T01:10:22.243Z,19.91
2018-03-08T01:12:48.197Z,19.89
2018-03-08T01:15:14.210Z,19.89
2018-03-08T01:17:40.186Z,19.94
2018-03-08T01:20:06.143Z,19.89
2018-03-08T01:22:32.105Z,19.87
2018-03-08T01:24:58.050Z,19.88
2018-03-08T01:27:24.038Z,19.85
2018-03-08T01:29:50.118Z,19.90
2018-03-08T01:32:16.089Z,19.83
2018-03-08T01:34:42.035Z,19.86
2018-03-08T01:37:08.013Z,19.87
2018-03-08T01:39:33.970Z,19.81
2018-03-08T01:41:59.919Z,19.85
2018-03-08T01:44:25.886Z,19.84
2018-03-08T01:46:51.842Z,19.85
2018-03-08T01:49:17.821Z,19.82
2018-03-08T01:51:43.823Z,19.81
2018-03-08T01:54:09.813Z,19.85
2018-03-08T01:56:35.761Z,19.84
2018-03-08T01:59:01.763Z,19.78
2018-03-08T02:01:27.747Z,19.80
2018-03-08T02:03:53.686Z,19.83
2018-03-08T02:06:19.783Z,19.79
2018-03-08T02:08:45.741Z,19.77
2018-03-08T02:11:11.701Z,19.76
2018-03-08T02:13:37.662Z,19.76
2018-03-08T02:16:03.610Z,19.80
2018-03-08T02:18:29.560Z,19.78
2018-03-08T02:20:55.529Z,19.77
2018-03-08T02:23:21.484Z,19.77
2018-03-08T02:25:47.429Z,19.79
2018-03-08T02:28:13.396Z,19.84
2018-03-08T02:30:39.344Z,19.80
2018-03-08T02:33:05.303Z,19.79
2018-03-08T02:35:31.282Z,19.76
2018-03-08T02:37:57.235Z,19.83
2018-03-08T02:40:23.205Z,19.74
2018-03-08T02:42:49.170Z,19.80
2018-03-08T02:45:15.120Z,19.79
2018-03-08T02:47:41.071Z,19.74
2018-03-08T02:50:07.076Z,19.75
2018-03-08T02:52:33.023Z,19.74
2018-03-08T02:54:59.007Z,19.69
2018-03-08T02:57:24.954Z,19.75
2018-03-08T02:59:50.904Z,19.73
2018-03-08T03:02:16.876Z,19.72
2018-03-08T03:04:42.826Z,19.70
2018-03-08T03:07:08.773Z,19.69
2018-03-08T03:09:34.756Z,19.72
2018-03-08T03:12:00.735Z,19.72
2018-03-08T03:14:26.684Z,19.75
2018-03-08T03:16:52.649Z,19.70
2018-03-08T03:19:18.603Z,19.71
2018-03-08T03:21:44.562Z,19.70
2018-03-08T03:24:10.552Z,19.71
2018-03-08T03:26:36.509Z,19.69
2018-03-08T03:29:02.479Z,19.69
2018-03-08T03:31:28.465Z,19.72
2018-03-08T03:33:54.726Z,19.71
2018-03-08T03:36:20.695Z,19.75
2018-03-08T03:38:46.655Z,19.77
2018-03-08T03:41:12.713Z,19.85
2018-03-08T03:43:38.682Z,19.90
2018-03-08T03:46:04.632Z,20.11
2018-03-08T03:48:30.639Z,20.19
2018-03-08T03:50:56.588Z,20.15
2018-03-08T03:53:22.557Z,20.15
2018-03-08T03:55:48.514Z,20.23
2018-03-08T03:58:14.491Z,20.25
2018-03-08T04:00:40.439Z,20.27
2018-03-08T04:03:06.398Z,20.31
2018-03-08T04:05:32.378Z,20.38
2018-03-08T04:07:58.321Z,20.45
2018-03-08T04:10:24.303Z,20.31
2018-03-08T04:12:50.252Z,20.34
2018-03-08T04:15:16.278Z,20.29
2018-03-08T04:17:42.238Z,20.31
2018-03-08T04:20:08.210Z,20.26
2018-03-08T04:22:34.164Z,20.40
2018-03-08T04:25:00.112Z,20.42
2018-03-08T04:27:26.067Z,20.45
2018-03-08T04:29:52.020Z,20.33
2018-03-08T04:32:17.970Z,20.35
2018-03-08T04:34:43.938Z,20.27
2018-03-08T04:37:09.929Z,20.26
2018-03-08T04:39:35.878Z,20.26
2018-03-08T04:42:01.842Z,20.39
2018-03-08T04:44:27.788Z,20.24
2018-03-08T04:46:53.784Z,20.25
2018-03-08T04:49:19.749Z,20.20
2018-03-08T04:51:45.708Z,20.23
2018-03-08T04:54:11.657Z,20.26
2018-03-08T04:56:37.636Z,20.26
2018-03-08T04:59:03.575Z,20.25
2018-03-08T05:01:29.539Z,20.20
2018-03-08T05:03:55.490Z,20.24
2018-03-08T05:06:21.450Z,20.24
2018-03-08T05:08:47.398Z,20.20
2018-03-08T05:11:13.390Z,20.15
2018-03-08T05:13:39.360Z,20.27
2018-03-08T05:16:05.319Z,20.34
2018-03-08T05:18:31.293Z,20.46
2018-03-08T05:20:57.242Z,20.37
2018-03-08T05:23:23.197Z,20.33
2018-03-08T05:25:49.150Z,20.36
2018-03-08T05:28:15.136Z,20.33
2018-03-08T05:30:41.104Z,20.31
2018-03-08T05:33:07.047Z,20.31
2018-03-08T05:35:32.999Z,20.32
2018-03-08T05:37:58.958Z,20.32
2018-03-08T05:40:24.910Z,20.35
2018-03-08T05:42:50.881Z,20.31
2018-03-08T05:45:16.852Z,20.30
2018-03-08T05:47:42.817Z,20.38
2018-03-08T05:50:08.867Z,20.37
2018-03-08T05:52:34.820Z,20.31
2018-03-08T05:55:00.806Z,20.32
2018-03-08T05:57:26.803Z,20.30
2018-03-08T05:59:52.754Z,20.29
2018-03-08T06:02:18.745Z,20.32
2018-03-08T06:04:44.683Z,20.30
2018-03-08T06:07:10.636Z,20.30
2018-03-08T06:09:36.611Z,20.29
2018-03-08T06:12:02.581Z,20.35
2018-03-08T06:14:28.541Z,20.34
2018-03-08T06:16:54.504Z,20.32
2018-03-08T06:19:20.509Z,20.24
2018-03-08T06:21:46.483Z,20.30
2018-03-08T06:24:12.456Z,20.33
2018-03-08T06:26:38.416Z,20.32
2018-03-08T06:29:04.439Z,20.36
2018-03-08T06:31:30.389Z,20.39
2018-03-08T06:33:56.347Z,20.46
2018-03-08T06:36:22.521Z,20.54
2018-03-08T06:38:48.469Z,20.54
2018-03-08T06:41:14.420Z,20.49
2018-03-08T06:43:40.664Z,20.45
2018-03-08T06:46:06.588Z,20.47
2018-03-08T06:48:32.551Z,20.47
2018-03-08T06:50:58.518Z,20.41
2018-03-08T06:53:24.472Z,20.46
2018-03-08T06:55:50.417Z,20.48
2018-03-08T06:58:16.370Z,20.39
2018-03-08T07:00:42.391Z,20.40
2018-03-08T07:03:08.377Z,20.36
2018-03-08T07:05:34.327Z,20.41
2018-03-08T07:08:00.387Z,20.36
2018-03-08T07:10:26.411Z,20.35
2018-03-08T07:12:52.371Z,20.61
2018-03-08T07:15:18.314Z,20.41
2018-03-08T07:17:44.275Z,20.41
2018-03-08T07:20:10.253Z,20.35
2018-03-08T07:22:36.191Z,20.41
2018-03-08T07:25:02.154Z,20.37
2018-03-08T07:27:28.119Z,20.40
2018-03-08T07:29:54.072Z,20.45
2018-03-08T07:32:20.030Z,20.40
2018-03-08T07:34:45.995Z,20.34
2018-03-08T07:37:11.958Z,20.42
2018-03-08T07:39:37.897Z,20.42
2018-03-08T07:42:03.867Z,20.49
2018-03-08T07:44:29.879Z,20.41
2018-03-08T07:46:55.839Z,20.46
2018-03-08T07:49:21.801Z,20.45
2018-03-08T07:51:47.792Z,20.38
2018-03-08T07:54:13.720Z,20.37
2018-03-08T07:56:39.657Z,20.40
2018-03-08T07:59:05.630Z,20.34
2018-03-08T08:01:31.579Z,20.36
2018-03-08T08:03:57.526Z,20.37
2018-03-08T08:06:23.499Z,20.41
2018-03-08T08:08:49.454Z,20.43
2018-03-08T08:11:15.420Z,20.46
2018-03-08T08:13:41.366Z,20.41
2018-03-08T08:16:07.356Z,20.40
2018-03-08T08:18:33.310Z,20.45
2018-03-08T08:20:59.289Z,20.41
2018-03-08T08:23:25.243Z,20.48
2018-03-08T08:25:51.203Z,20.40
2018-03-08T08:28:17.147Z,20.43
2018-03-08T08:30:43.114Z,20.39
2018-03-08T08:33:09.162Z,20.43
2018-03-08T08:35:35.119Z,20.37
2018-03-08T08:38:01.102Z,20.40
2018-03-08T08:40:27.093Z,20.41
2018-03-08T08:42:53.059Z,20.58
2018-03-08T08:45:19.017Z,20.44
2018-03-08T08:47:45.001Z,20.40
2018-03-08T08:50:10.995Z,20.38
2018-03-08T08:52:36.964Z,20.42
2018-03-08T08:55:02.929Z,20.42
2018-03-08T08:57:28.894Z,20.47
2018-03-08T08:59:54.855Z,20.48
2018-03-08T09:02:20.874Z,20.52
2018-03-08T09:04:46.891Z,20.55
2018-03-08T09:07:12.849Z,20.49
2018-03-08T09:09:38.820Z,20.47
2018-03-08T09:12:04.776Z,20.51
2018-03-08T09:14:30.752Z,20.53
2018-03-08T09:16:56.700Z,20.52
2018-03-08T09:19:22.658Z,20.50
2018-03-08T09:21:48.622Z,20.49
2018-03-08T09:24:14.571Z,20.47
2018-03-08T09:26:40.547Z,20.46
2018-03-08T09:29:06.506Z,20.44
2018-03-08T09:31:32.488Z,20.47
2018-03-08T09:33:58.446Z,20.47
2018-03-08T09:36:24.405Z,20.46
2018-03-08T09:38:50.340Z,20.44
2018-03-08T09:41:16.303Z,20.42
2018-03-08T09:43:42.289Z,20.44
2018-03-08T09:46:08.260Z,20.51
2018-03-08T09:48:34.360Z,20.55
2018-03-08T09:51:00.329Z,20.50
2018-03-08T09:53:26.280Z,20.48
2018-03-08T09:55:52.300Z,20.56
2018-03-08T09:58:18.248Z,20.53
2018-03-08T10:00:44.199Z,20.49
2018-03-08T10:03:10.222Z,20.47
2018-03-08T10:05:36.179Z,20.48
2018-03-08T10:08:02.151Z,20.48
2018-03-08T10:10:28.122Z,20.49
2018-03-08T10:12:54.149Z,20.47
2018-03-08T10:15:20.081Z,20.48
2018-03-08T10:17:46.062Z,20.45
2018-03-08T10:20:12.021Z,20.41
2018-03-08T10:22:37.990Z,20.41
2018-03-08T10:25:03.974Z,20.45
2018-03-08T10:27:29.934Z,20.45
2018-03-08T10:29:55.893Z,20.43
2018-03-08T10:32:22.938Z,20.43
2018-03-08T10:34:48.913Z,20.45
2018-03-08T10:37:14.859Z,20.54
2018-03-08T10:39:40.901Z,20.45
2018-03-08T10:42:06.860Z,20.50
2018-03-08T10:44:32.815Z,20.45
2018-03-08T10:46:58.776Z,20.47
2018-03-08T10:49:24.782Z,20.53
2018-03-08T10:51:50.733Z,20.42
2018-03-08T10:54:16.807Z,20.45
2018-03-08T10:56:42.738Z,20.44
2018-03-08T10:59:08.702Z,20.42
2018-03-08T11:01:34.658Z,20.45
2018-03-08T11:04:00.616Z,20.48
2018-03-08T11:06:26.637Z,20.47
2018-03-08T11:08:52.578Z,20.40
2018-03-08T11:11:18.532Z,20.47
2018-03-08T11:13:44.482Z,20.47
2018-03-08T11:16:10.430Z,20.50
2018-03-08T11:18:36.486Z,20.46
2018-03-08T11:21:02.449Z,20.44
2018-03-08T11:23:28.405Z,20.45
2018-03-08T11:25:54.382Z,20.43
2018-03-08T11:28:20.345Z,20.48
2018-03-08T11:30:46.320Z,20.43
2018-03-08T11:33:12.295Z,20.49
2018-03-08T11:35:38.238Z,20.47
2018-03-08T11:38:04.222Z,20.46
2018-03-08T11:40:30.203Z,20.51
2018-03-08T11:42:56.142Z,20.45
2018-03-08T11:45:22.087Z,20.50
2018-03-08T11:47:48.246Z,20.45
2018-03-08T11:50:14.188Z,20.44
2018-03-08T11:52:40.133Z,20.45
2018-03-08T11:55:06.166Z,20.50
2018-03-08T11:57:32.119Z,20.49
2018-03-08T11:59:58.176Z,20.46
2018-03-08T12:02:24.161Z,20.51
2018-03-08T12:04:50.137Z,20.46
2018-03-08T12:07:16.122Z,20.51
2018-03-08T12:09:42.107Z,20.54
2018-03-08T12:12:08.228Z,20.46
2018-03-08T12:14:34.181Z,20.43
2018-03-08T12:17:00.140Z,20.53
2018-03-08T12:19:26.169Z,20.47
2018-03-08T12:21:52.145Z,20.42
2018-03-08T12:24:18.094Z,20.46
2018-03-08T12:26:44.052Z,20.44
2018-03-08T12:29:10.046Z,20.50
2018-03-08T12:31:36.021Z,20.45
2018-03-08T12:34:02.088Z,20.49
2018-03-08T12:36:28.026Z,20.47
2018-03-08T12:38:53.995Z,20.52
2018-03-08T12:41:19.940Z,20.57
2018-03-08T12:43:45.901Z,20.46
2018-03-08T12:46:11.884Z,20.50
2018-03-08T12:48:37.865Z,20.52
2018-03-08T12:51:03.851Z,20.48
2018-03-08T12:53:29.799Z,20.45
2018-03-08T12:55:55.758Z,20.57
2018-03-08T12:58:21.702Z,20.51
2018-03-08T13:00:47.663Z,20.46
2018-03-08T13:03:13.630Z,20.47
2018-03-08T13:05:39.628Z,20.51
2018-03-08T13:08:05.593Z,20.49
2018-03-08T13:10:31.572Z,20.39
2018-03-08T13:12:57.532Z,20.42
2018-03-08T13:15:23.503Z,20.47
2018-03-08T13:17:49.500Z,20.42
2018-03-08T13:20:15.450Z,20.50
2018-03-08T13:22:41.398Z,20.49
2018-03-08T13:25:07.357Z,20.45
2018-03-08T13:27:33.326Z,20.48
2018-03-08T13:29:59.280Z,20.52
2018-03-08T13:32:25.235Z,20.51
2018-03-08T13:34:51.198Z,20.44
2018-03-08T13:37:17.155Z,20.47
2018-03-08T13:39:43.110Z,20.51
2018-03-08T13:42:09.067Z,20.42
2018-03-08T13:44:35.043Z,20.43
2018-03-08T13:47:01.005Z,20.44
2018-03-08T13:49:26.974Z,20.44
2018-03-08T13:51:52.929Z,20.45
2018-03-08T13:54:18.887Z,20.41
2018-03-08T13:56:44.831Z,20.38
2018-03-08T13:59:10.830Z,20.49
2018-03-08T14:01:36.787Z,20.59
2018-03-08T14:04:02.733Z,20.52
2018-03-08T14:06:28.757Z,20.66
2018-03-08T14:08:54.702Z,20.47
2018-03-08T14:11:20.774Z,20.56
2018-03-08T14:13:47.598Z,20.46
2018-03-08T14:16:13.557Z,20.39
2018-03-08T14:18:39.570Z,20.40
2018-03-08T14:21:05.530Z,20.40
2018-03-08T14:23:31.489Z,20.41
2018-03-08T14:25:57.436Z,20.39
2018-03-08T14:28:23.410Z,20.38
2018-03-08T14:30:49.387Z,20.37
2018-03-08T14:33:15.355Z,20.36
2018-03-08T14:35:41.327Z,20.36
2018-03-08T14:38:07.308Z,20.40
2018-03-08T14:40:33.269Z,20.41
2018-03-08T14:42:59.230Z,20.35
2018-03-08T14:45:25.214Z,20.37
2018-03-08T14:47:51.210Z,20.39
2018-03-08T14:50:17.179Z,20.40
2018-03-08T14:52:43.118Z,20.41
2018-03-08T14:55:09.094Z,20.41
2018-03-08T14:57:35.115Z,20.40
2018-03-08T15:00:01.079Z,20.43
2018-03-08T15:02:27.030Z,20.44
2018-03-08T15:04:53.014Z,20.42
2018-03-08T15:07:18.961Z,20.40
2018-03-08T15:09:44.901Z,20.40
2018-03-08T15:12:10.851Z,20.42
2018-03-08T15:14:36.874Z,20.41
2018-03-08T15:17:02.806Z,20.34
2018-03-08T15:19:28.754Z,20.39
2018-03-08T15:21:54.830Z,20.44
2018-03-08T15:24:20.778Z,20.43
2018-03-08T15:26:46.776Z,20.44
2018-03-08T15:29:12.702Z,20.44
2018-03-08T15:31:38.655Z,20.45
2018-03-08T15:34:04.597Z,20.48
2018-03-08T15:36:30.573Z,20.43
2018-03-08T15:38:56.535Z,20.44
2018-03-08T15:41:22.494Z,20.40
2018-03-08T15:43:48.455Z,20.45
2018-03-08T15:46:14.402Z,20.42
2018-03-08T15:48:40.360Z,20.38
2018-03-08T15:51:06.307Z,20.47
2018-03-08T15:53:32.338Z,20.42
2018-03-08T15:55:58.308Z,20.42
2018-03-08T15:58:24.242Z,20.40
2018-03-08T16:00:50.226Z,20.43
2018-03-08T16:03:16.194Z,20.50
2018-03-08T16:05:42.160Z,20.44
2018-03-08T16:08:08.107Z,20.45
2018-03-08T16:10:34.102Z,20.43
2018-03-08T16:13:00.061Z,20.43
2018-03-08T16:15:26.003Z,20.49
2018-03-08T16:17:51.962Z,20.45
2018-03-08T16:20:17.939Z,20.47
2018-03-08T16:22:43.874Z,20.43
2018-03-08T16:25:09.846Z,20.51
2018-03-08T16:27:35.781Z,20.56
2018-03-08T16:30:01.745Z,20.64
2018-03-08T16:32:27.701Z,20.65
2018-03-08T16:34:53.679Z,20.78
2018-03-08T16:37:19.651Z,20.65
2018-03-08T16:39:45.604Z,20.70
2018-03-08T16:42:11.543Z,20.65
2018-03-08T16:44:37.529Z,20.62
2018-03-08T16:47:03.492Z,20.49
2018-03-08T16:49:29.430Z,20.49
2018-03-08T16:51:55.391Z,20.47
2018-03-08T16:54:21.345Z,20.51
2018-03-08T16:56:47.314Z,20.50
2018-03-08T16:59:13.331Z,20.47
2018-03-08T17:01:39.231Z,20.50
2018-03-08T17:04:05.166Z,20.45
2018-03-08T17:06:31.178Z,20.49
2018-03-08T17:08:57.139Z,20.46
2018-03-08T17:11:23.105Z,20.46
2018-03-08T17:13:49.214Z,20.56
2018-03-08T17:16:15.166Z,20.56
2018-03-08T17:18:41.127Z,20.54
2018-03-08T17:21:07.087Z,20.49
2018-03-08T17:23:33.034Z,20.48
2018-03-08T17:25:59.002Z,20.58
2018-03-08T17:28:25.049Z,20.52
2018-03-08T17:30:50.914Z,20.51
2018-03-08T17:33:16.852Z,20.42
2018-03-08T17:35:42.877Z,20.44
2018-03-08T17:38:08.833Z,20.43
2018-03-08T17:40:34.786Z,20.44
2018-03-08T17:43:00.727Z,20.46
2018-03-08T17:45:26.698Z,20.58
2018-03-08T17:47:52.630Z,20.52
2018-03-08T17:50:18.598Z,20.55
2018-03-08T17:52:44.573Z,20.54
2018-03-08T17:55:10.523Z,20.53
2018-03-08T17:57:36.491Z,20.57
2018-03-08T18:00:02.463Z,20.54
2018-03-08T18:02:28.419Z,20.61
2018-03-08T18:04:54.373Z,20.64
2018-03-08T18:07:25.463Z,20.64
2018-03-08T18:09:51.443Z,20.64
2018-03-08T18:12:17.414Z,20.69
2018-03-08T18:14:43.418Z,20.72
2018-03-08T18:17:09.414Z,20.69
2018-03-08T18:19:35.381Z,20.67
2018-03-08T18:22:01.378Z,20.64
2018-03-08T18:24:27.366Z,20.65
2018-03-08T18:26:53.334Z,20.71
2018-03-08T18:29:19.424Z,20.67
2018-03-08T18:31:45.388Z,20.74
2018-03-08T18:34:11.358Z,20.69
2018-03-08T18:36:37.342Z,20.73
2018-03-08T18:39:03.305Z,20.64
2018-03-08T18:41:29.266Z,20.70
2018-03-08T18:43:55.243Z,20.73
2018-03-08T18:46:21.223Z,20.79
2018-03-08T18:48:47.202Z,20.79
2018-03-08T18:51:13.196Z,20.76
2018-03-08T18:53:39.157Z,20.68
2018-03-08T18:56:05.146Z,20.63
2018-03-08T18:58:31.150Z,20.88
2018-03-08T19:00:57.114Z,20.67
2018-03-08T19:03:23.076Z,20.63
2018-03-08T19:05:49.028Z,20.63
2018-03-08T19:08:14.990Z,20.63
2018-03-08T19:10:40.985Z,20.61
2018-03-08T19:13:06.992Z,20.57
2018-03-08T19:15:32.914Z,20.60
2018-03-08T19:17:58.888Z,20.56
2018-03-08T19:20:24.888Z,20.55
2018-03-08T19:22:50.878Z,20.56
2018-03-08T19:25:16.839Z,20.54
2018-03-08T19:27:42.806Z,20.55
2018-03-08T19:30:08.785Z,20.51
2018-03-08T19:32:34.754Z,20.57
2018-03-08T19:35:00.748Z,20.58
2018-03-08T19:37:26.731Z,20.54
2018-03-08T19:39:52.755Z,20.51
2018-03-08T19:42:18.696Z,20.61
2018-03-08T19:44:44.710Z,20.51
2018-03-08T19:47:11.629Z,20.59
2018-03-08T19:49:37.590Z,20.52
2018-03-08T19:52:03.635Z,20.58
2018-03-08T19:54:30.625Z,20.57
2018-03-08T19:56:56.594Z,20.55
2018-03-08T19:59:22.555Z,20.54
2018-03-08T20:01:48.554Z,20.54
2018-03-08T20:04:14.557Z,20.54
2018-03-08T20:06:40.518Z,20.59
2018-03-08T20:09:06.559Z,20.54
2018-03-08T20:11:32.526Z,20.51
2018-03-08T20:13:58.496Z,20.49
2018-03-08T20:16:24.458Z,20.58
2018-03-08T20:18:50.446Z,20.56
2018-03-08T20:21:16.424Z,20.57
2018-03-08T20:23:42.391Z,20.52
2018-03-08T20:26:08.368Z,20.54
2018-03-08T20:28:34.365Z,20.61
2018-03-08T20:31:00.326Z,20.54
2018-03-08T20:33:26.320Z,20.56
2018-03-08T20:35:52.296Z,20.57
2018-03-08T20:38:18.252Z,20.54
2018-03-08T20:40:44.214Z,20.50
2018-03-08T20:43:10.185Z,20.52
2018-03-08T20:45:36.192Z,20.50
2018-03-08T20:48:02.175Z,20.48
2018-03-08T20:50:28.174Z,20.45
2018-03-08T20:52:54.130Z,20.55
2018-03-08T20:55:20.146Z,20.49
2018-03-08T20:57:46.078Z,20.44
2018-03-08T21:00:12.069Z,20.46
2018-03-08T21:02:38.072Z,20.45
2018-03-08T21:05:04.355Z,20.50
2018-03-08T21:07:30.323Z,20.48
2018-03-08T21:09:56.298Z,20.49
2018-03-08T21:12:22.278Z,20.50
2018-03-08T21:14:48.257Z,20.51
2018-03-08T21:17:14.219Z,20.52
2018-03-08T21:19:40.181Z,20.50
2018-03-08T21:22:07.159Z,20.41
2018-03-08T21:24:33.123Z,20.46
2018-03-08T21:26:59.195Z,20.51
2018-03-08T21:29:25.129Z,20.52
2018-03-08T21:31:51.127Z,20.44
2018-03-08T21:34:17.088Z,20.42
2018-03-08T21:36:43.065Z,20.43
2018-03-08T21:39:09.064Z,20.43
2018-03-08T21:41:35.050Z,20.41
2018-03-08T21:44:01.027Z,20.38
2018-03-08T21:46:26.990Z,20.34
2018-03-08T21:48:52.999Z,20.32
2018-03-08T21:51:18.980Z,20.35
2018-03-08T21:53:44.949Z,20.35
2018-03-08T21:56:10.952Z,20.30
2018-03-08T21:58:36.915Z,20.31
2018-03-08T22:01:02.875Z,20.28
2018-03-08T22:03:29.008Z,20.27
2018-03-08T22:05:54.978Z,20.32
2018-03-08T22:08:20.956Z,20.30
2018-03-08T22:10:46.959Z,20.29
2018-03-08T22:13:12.929Z,20.26
2018-03-08T22:15:38.882Z,20.25
2018-03-08T22:18:04.830Z,20.25
2018-03-08T22:20:30.804Z,20.23
2018-03-08T22:22:56.770Z,20.24
2018-03-08T22:25:22.741Z,20.22
2018-03-08T22:27:48.702Z,20.19
2018-03-08T22:30:14.675Z,20.21
2018-03-08T22:32:40.641Z,20.20
2018-03-08T22:35:06.593Z,20.17
2018-03-08T22:37:32.557Z,20.34
2018-03-08T22:39:58.517Z,20.26
2018-03-08T22:42:24.480Z,20.22
2018-03-08T22:44:50.445Z,20.14
2018-03-08T22:47:16.426Z,20.15
2018-03-08T22:49:42.420Z,20.13
2018-03-08T22:52:08.379Z,20.15
2018-03-08T22:54:34.362Z,20.15
2018-03-08T22:57:00.327Z,20.08
2018-03-08T22:59:26.269Z,20.19
2018-03-08T23:01:52.242Z,20.12
2018-03-08T23:04:18.215Z,20.13
2018-03-08T23:06:44.186Z,20.08
2018-03-08T23:09:10.139Z,20.06
2018-03-08T23:11:36.113Z,20.06
2018-03-08T23:14:02.095Z,20.08
2018-03-08T23:16:28.086Z,20.06
2018-03-08T23:18:54.111Z,20.09
2018-03-08T23:21:20.089Z,20.02
2018-03-08T23:23:46.098Z,20.03
2018-03-08T23:26:12.073Z,19.97
2018-03-08T23:28:38.047Z,19.98
2018-03-08T23:31:04.036Z,19.98
2018-03-08T23:33:30.135Z,19.94
2018-03-08T23:40:58.741Z,20.01
2018-03-08T23:43:24.734Z,19.97
2018-03-08T23:45:50.705Z,20.01
2018-03-08T23:48:16.665Z,19.97
2018-03-08T23:50:42.630Z,19.98
2018-03-08T23:53:08.578Z,19.97
2018-03-08T23:55:34.571Z,19.94
2018-03-08T23:58:00.556Z,19.98
